Time;durP1;ratioP1;P1;durP2;ratioP2;P2;SDS_P1;SDS_P2;PMS_P1;PMS_P2;Temp;Humidity;BMP_temperature;BMP_pressure;BME280_temperature;BME280_humidity;BME280_pressure;Samples;Min_cycle;Max_cycle;Signal;HPM_P1;HPM_P2
2021/01/16 00:01:02;;;;;;;116.90;57.55;;;0.20;99.90;;;;;;4983659;28;20696;-82
2021/01/16 00:06:49;;;;;;;137.68;65.28;;;0.20;99.90;;;;;;4985914;28;20185;-82
2021/01/16 00:09:16;;;;;;;128.48;59.25;;;0.20;99.90;;;;;;4975865;28;20105;-82
2021/01/16 00:11:41;;;;;;;112.65;52.83;;;0.30;99.90;;;;;;4960646;28;20027;-83
2021/01/16 00:14:07;;;;;;;89.65;43.00;;;0.40;99.90;;;;;;4993657;28;20052;-83
2021/01/16 00:16:34;;;;;;;83.95;37.70;;;0.30;99.90;;;;;;4976088;28;20767;-83
2021/01/16 00:18:59;;;;;;;78.75;37.38;;;0.30;99.90;;;;;;4993720;28;20029;-83
2021/01/16 00:21:25;;;;;;;79.75;37.92;;;0.10;99.90;;;;;;4977534;28;20019;-82
2021/01/16 00:23:51;;;;;;;105.85;47.58;;;0.20;99.90;;;;;;4979829;28;20391;-83
2021/01/16 00:26:17;;;;;;;97.93;46.22;;;0.10;99.90;;;;;;4967799;28;20027;-83
2021/01/16 00:28:42;;;;;;;137.73;61.13;;;0.10;99.90;;;;;;4993457;28;20093;-83
2021/01/16 00:31:08;;;;;;;119.38;55.05;;;0.10;99.90;;;;;;4966914;28;20122;-83
2021/01/16 00:33:36;;;;;;;111.90;51.90;;;0.00;99.90;;;;;;4985374;28;20019;-83
2021/01/16 00:36:04;;;;;;;146.65;63.05;;;0.10;99.90;;;;;;4982338;28;20359;-83
2021/01/16 00:38:36;;;;;;;162.82;69.30;;;0.00;99.90;;;;;;4975149;28;20073;-84
2021/01/16 00:41:02;;;;;;;131.45;53.28;;;-0.10;99.90;;;;;;4978215;28;20015;-84
2021/01/16 00:43:28;;;;;;;113.63;52.50;;;-0.20;99.90;;;;;;4978178;28;20487;-84
2021/01/16 00:45:54;;;;;;;107.38;50.05;;;-0.20;99.90;;;;;;4960641;28;20471;-84
2021/01/16 00:48:21;;;;;;;87.15;43.80;;;-0.30;99.90;;;;;;4978131;28;20084;-84
2021/01/16 00:50:59;;;;;;;81.35;40.63;;;-0.30;99.90;;;;;;4977965;28;20027;-84
2021/01/16 00:53:25;;;;;;;101.78;44.20;;;-0.30;99.90;;;;;;4977993;28;20517;-83
2021/01/16 00:55:53;;;;;;;109.82;49.90;;;-0.30;99.90;;;;;;4977856;28;20035;-84
2021/01/16 00:58:20;;;;;;;115.45;56.50;;;-0.30;99.90;;;;;;4978090;28;20026;-84
2021/01/16 01:00:48;;;;;;;147.55;63.05;;;-0.30;99.90;;;;;;4977766;28;20031;-84
2021/01/16 01:03:18;;;;;;;114.25;56.60;;;-0.30;99.90;;;;;;4977508;28;20121;-83
2021/01/16 01:05:44;;;;;;;;;;;-0.30;99.90;;;;;;4978144;28;20030;-82
2021/01/16 01:08:10;;;;;;;127.10;62.15;;;-0.30;99.90;;;;;;4977654;28;19921;-82
2021/01/16 01:10:42;;;;;;;112.28;57.88;;;-0.30;99.90;;;;;;4960341;28;20462;-83
2021/01/16 01:13:08;;;;;;;96.60;50.72;;;-0.30;99.90;;;;;;4977504;28;20386;-83
2021/01/16 01:15:34;;;;;;;86.57;43.78;;;-0.30;99.90;;;;;;4977545;28;20023;-83
2021/01/16 01:18:01;;;;;;;84.47;45.10;;;-0.30;99.90;;;;;;4977606;28;20133;-83
2021/01/16 01:20:28;;;;;;;82.63;46.15;;;-0.30;99.90;;;;;;4960175;28;20023;-83
2021/01/16 01:22:54;;;;;;;80.10;43.08;;;-0.40;99.90;;;;;;4976250;28;20110;-83
2021/01/16 01:25:20;;;;;;;81.95;42.88;;;-0.30;99.90;;;;;;4977491;28;20027;-83
2021/01/16 01:27:58;;;;;;;75.38;38.67;;;-0.30;99.90;;;;;;4977408;28;20129;-83
2021/01/16 01:30:30;;;;;;;87.63;43.90;;;-0.30;99.90;;;;;;4977434;28;20102;-83
2021/01/16 01:32:57;;;;;;;76.72;42.20;;;-0.30;99.90;;;;;;4977385;28;20386;-83
2021/01/16 01:35:25;;;;;;;76.32;43.03;;;-0.30;99.90;;;;;;4977223;28;20102;-83
2021/01/16 01:37:54;;;;;;;82.90;43.13;;;-0.30;99.90;;;;;;4977087;28;20030;-83
2021/01/16 01:40:21;;;;;;;78.32;39.90;;;-0.40;99.90;;;;;;4976193;28;20046;-83
2021/01/16 01:42:52;;;;;;;133.05;56.05;;;-0.40;99.90;;;;;;4959813;28;20474;-83
2021/01/16 01:45:19;;;;;;;148.55;62.28;;;-0.50;99.90;;;;;;4977103;28;20109;-83
2021/01/16 01:47:47;;;;;;;116.43;52.63;;;-0.50;99.90;;;;;;4977116;28;20030;-83
2021/01/16 01:50:15;;;;;;;114.57;51.28;;;-0.60;99.90;;;;;;4976556;28;20463;-83
2021/01/16 01:52:41;;;;;;;139.23;61.35;;;-0.60;99.90;;;;;;4976961;28;20055;-83
2021/01/16 01:55:09;;;;;;;126.70;55.50;;;-0.60;99.90;;;;;;4976837;28;20407;-83
2021/01/16 01:57:51;;;;;;;103.18;43.60;;;-0.60;99.90;;;;;;4975676;28;20125;-82
2021/01/16 02:00:18;;;;;;;71.55;36.17;;;-0.70;99.90;;;;;;4975518;28;20027;-81
2021/01/16 02:02:46;;;;;;;59.50;32.65;;;-0.70;99.90;;;;;;4976648;28;20042;-83
2021/01/16 02:05:12;;;;;;;47.90;26.75;;;-0.70;99.90;;;;;;4976783;28;20430;-84
2021/01/16 02:07:39;;;;;;;52.08;29.52;;;-0.70;99.90;;;;;;4976712;28;20031;-82
2021/01/16 02:10:24;;;;;;;62.45;31.63;;;-0.70;99.90;;;;;;4976562;28;20049;-83
2021/01/16 02:12:55;;;;;;;61.92;34.05;;;-0.80;99.90;;;;;;4976673;28;20062;-83
2021/01/16 02:15:35;;;;;;;63.17;36.03;;;-0.90;99.90;;;;;;4976551;28;20045;-83
2021/01/16 02:18:07;;;;;;;66.35;35.38;;;-0.90;99.90;;;;;;4959223;28;20034;-83
2021/01/16 02:20:36;;;;;;;74.57;39.40;;;-1.00;99.90;;;;;;4976498;28;20030;-83
2021/01/16 02:23:30;;;;;;;93.30;45.33;;;-1.10;99.90;;;;;;4976330;28;20096;-83
2021/01/16 02:26:15;;;;;;;79.03;41.72;;;-1.10;99.90;;;;;;4976394;28;20062;-83
2021/01/16 02:28:56;;;;;;;58.55;32.72;;;-1.10;99.90;;;;;;4959285;28;20086;-83
2021/01/16 02:31:27;;;;;;;73.03;36.15;;;-1.00;99.90;;;;;;4958947;28;20568;-83
2021/01/16 02:33:55;;;;;;;65.05;35.00;;;-1.00;99.90;;;;;;4976127;28;20423;-83
2021/01/16 02:36:39;;;;;;;79.60;39.95;;;-1.00;99.90;;;;;;4974896;28;20030;-83
2021/01/16 02:39:24;;;;;;;70.93;37.85;;;-1.00;99.90;;;;;;4976039;28;20423;-83
2021/01/16 02:42:02;;;;;;;74.97;39.53;;;-1.00;99.90;;;;;;4975984;28;20459;-83
2021/01/16 02:44:36;;;;;;;72.13;36.47;;;-0.90;99.90;;;;;;4976043;28;20092;-83
2021/01/16 02:47:48;;;;;;;86.15;42.55;;;-0.90;99.90;;;;;;4958725;28;20065;-83
2021/01/16 02:50:21;;;;;;;286.00;74.70;;;-0.90;99.90;;;;;;4975886;28;20073;-83
2021/01/16 02:52:49;;;;;;;157.10;64.78;;;-0.80;99.90;;;;;;4958529;28;20023;-84
2021/01/16 02:55:18;;;;;;;118.88;52.83;;;-0.80;99.90;;;;;;4975748;28;20023;-84
2021/01/16 02:57:44;;;;;;;98.28;51.45;;;-0.80;99.90;;;;;;4975864;28;20034;-84
2021/01/16 03:00:20;;;;;;;109.80;46.28;;;-0.80;99.90;;;;;;4958174;28;20394;-84
2021/01/16 03:02:46;;;;;;;85.00;41.58;;;-0.70;99.90;;;;;;4957530;28;20039;-84
2021/01/16 03:05:12;;;;;;;83.53;42.17;;;-0.70;99.90;;;;;;4958329;28;20097;-85
2021/01/16 03:07:40;;;;;;;93.15;43.00;;;-0.70;99.90;;;;;;4958159;28;20478;-82
2021/01/16 03:10:09;;;;;;;193.32;77.72;;;-0.70;99.90;;;;;;4975486;28;20037;-83
2021/01/16 03:12:35;;;;;;;205.63;83.55;;;-0.60;99.90;;;;;;4975244;28;20027;-83
2021/01/16 03:15:21;;;;;;;140.38;63.08;;;-0.70;99.90;;;;;;4975227;28;20026;-83
2021/01/16 03:17:50;;;;;;;156.98;63.42;;;-0.70;99.90;;;;;;4974768;28;20019;-81
2021/01/16 03:20:23;;;;;;;164.82;67.65;;;-0.70;99.90;;;;;;4957240;28;20478;-81
2021/01/16 03:23:00;;;;;;;136.23;60.97;;;-0.70;99.90;;;;;;4957577;28;20034;-80
2021/01/16 03:25:28;;;;;;;84.03;40.67;;;-0.70;99.90;;;;;;4975117;28;20019;-81
2021/01/16 03:27:54;;;;;;;81.13;42.08;;;-0.70;99.90;;;;;;4974593;28;20051;-81
2021/01/16 03:30:20;;;;;;;81.95;41.00;;;-0.70;99.90;;;;;;4975005;28;20034;-82
2021/01/16 03:32:48;;;;;;;79.18;40.45;;;-0.70;99.90;;;;;;4974882;28;20027;-82
2021/01/16 03:35:22;;;;;;;76.03;39.22;;;-0.60;99.90;;;;;;4957604;28;20031;-83
2021/01/16 03:37:47;;;;;;;74.00;38.40;;;-0.60;99.90;;;;;;4975153;28;20031;-83
2021/01/16 03:40:14;;;;;;;63.65;33.83;;;-0.60;99.90;;;;;;4974891;28;20049;-83
2021/01/16 03:42:42;;;;;;;55.83;32.55;;;-0.60;99.90;;;;;;4974996;28;20050;-83
2021/01/16 03:45:17;;;;;;;61.65;32.17;;;-0.60;99.90;;;;;;4974915;28;20023;-83
2021/01/16 03:47:43;;;;;;;50.95;30.77;;;-0.50;99.90;;;;;;4974929;28;20023;-83
2021/01/16 03:50:09;;;;;;;59.75;34.10;;;-0.50;99.90;;;;;;4974885;28;20038;-83
2021/01/16 03:52:39;;;;;;;55.92;33.85;;;-0.60;99.90;;;;;;4974833;28;20110;-82
2021/01/16 03:55:07;;;;;;;56.00;28.67;;;-0.50;99.90;;;;;;4975031;28;20378;-83
2021/01/16 03:57:33;;;;;;;49.63;28.73;;;-0.50;99.90;;;;;;4975077;28;20086;-82
2021/01/16 03:59:59;;;;;;;49.75;28.30;;;-0.50;99.90;;;;;;4957399;28;20031;-83
2021/01/16 04:02:24;;;;;;;49.55;28.13;;;-0.50;99.90;;;;;;4974494;28;20025;-83
2021/01/16 04:04:50;;;;;;;50.63;29.55;;;-0.50;99.90;;;;;;4974697;28;20031;-83
2021/01/16 04:07:17;;;;;;;68.03;39.00;;;-0.50;99.90;;;;;;4957303;28;20026;-83
2021/01/16 04:09:45;;;;;;;58.92;33.53;;;-0.50;99.90;;;;;;4957280;28;20439;-83
2021/01/16 04:12:11;;;;;;;64.00;32.88;;;-0.50;99.90;;;;;;4973320;28;20054;-83
2021/01/16 04:14:37;;;;;;;60.53;34.47;;;-0.50;99.90;;;;;;4957113;28;20445;-83
2021/01/16 04:17:07;;;;;;;51.90;30.13;;;-0.60;99.90;;;;;;4974635;28;20114;-83
2021/01/16 04:19:33;;;;;;;63.15;33.13;;;-0.60;99.90;;;;;;4957225;28;20115;-83
2021/01/16 04:22:00;;;;;;;63.67;34.15;;;-0.50;99.90;;;;;;4957151;28;20474;-83
2021/01/16 04:24:26;;;;;;;76.28;38.88;;;-0.60;99.90;;;;;;4974515;28;20512;-83
2021/01/16 04:26:52;;;;;;;72.35;39.40;;;-0.60;99.90;;;;;;4974577;28;20113;-83
2021/01/16 04:29:18;;;;;;;60.35;33.67;;;-0.60;99.90;;;;;;4974547;28;20023;-85
2021/01/16 04:31:44;;;;;;;52.17;31.02;;;-0.60;99.90;;;;;;4974372;28;20034;-85
2021/01/16 04:34:10;;;;;;;44.13;28.58;;;-0.60;99.90;;;;;;4974441;28;20031;-85
2021/01/16 04:36:36;;;;;;;50.33;29.92;;;-0.60;99.90;;;;;;4974690;28;20090;-85
2021/01/16 04:39:03;;;;;;;66.93;38.90;;;-0.60;99.90;;;;;;4974385;28;20102;-85
2021/01/16 04:41:30;;;;;;;61.33;36.20;;;-0.60;99.90;;;;;;4956940;28;20494;-84
2021/01/16 04:43:57;;;;;;;58.65;36.70;;;-0.60;99.90;;;;;;4974306;28;20030;-84
2021/01/16 04:46:24;;;;;;;56.35;31.27;;;-0.60;99.90;;;;;;4974400;28;20153;-85
2021/01/16 04:49:13;;;;;;;55.83;32.42;;;-0.60;99.90;;;;;;4956988;28;20023;-84
2021/01/16 04:51:45;;;;;;;57.47;31.33;;;-0.60;99.90;;;;;;4974339;28;20097;-84
2021/01/16 04:54:17;;;;;;;65.13;31.90;;;-0.60;99.90;;;;;;4956819;28;20027;-83
2021/01/16 04:56:44;;;;;;;61.33;33.25;;;-0.60;99.90;;;;;;4973992;28;20034;-84
2021/01/16 04:59:10;;;;;;;66.90;36.47;;;-0.60;99.90;;;;;;4972105;28;20082;-85
2021/01/16 05:01:35;;;;;;;73.28;40.10;;;-0.60;99.90;;;;;;4974083;28;20482;-85
2021/01/16 05:04:02;;;;;;;73.13;36.45;;;-0.70;99.90;;;;;;4956578;28;20053;-85
2021/01/16 05:06:28;;;;;;;84.43;38.78;;;-0.70;99.90;;;;;;4974168;28;20101;-83
2021/01/16 05:08:56;;;;;;;92.90;45.25;;;-0.60;99.90;;;;;;4974477;28;20019;-83
2021/01/16 05:11:25;;;;;;;81.10;43.53;;;-0.70;99.90;;;;;;4956697;28;20034;-84
2021/01/16 05:14:14;;;;;;;76.72;40.38;;;-0.70;99.90;;;;;;4956674;28;20027;-84
2021/01/16 05:16:49;;;;;;;98.13;50.28;;;-0.70;99.90;;;;;;4974076;28;20486;-84
2021/01/16 05:19:19;;;;;;;93.55;51.78;;;-0.70;99.90;;;;;;4973926;28;20030;-84
2021/01/16 05:21:44;;;;;;;107.00;55.10;;;-0.70;99.90;;;;;;4974002;28;20023;-84
2021/01/16 05:24:14;;;;;;;109.57;54.08;;;-0.70;99.90;;;;;;4974254;28;20042;-84
2021/01/16 05:27:03;;;;;;;98.47;47.83;;;-0.80;99.90;;;;;;4977491;28;20034;-84
2021/01/16 05:29:31;;;;;;;74.50;37.28;;;-0.80;99.90;;;;;;4960103;28;20027;-84
2021/01/16 05:32:00;;;;;;;79.45;42.78;;;-0.80;99.90;;;;;;4976128;28;20529;-84
2021/01/16 05:34:27;;;;;;;88.70;42.80;;;-0.80;99.90;;;;;;4977330;28;20491;-84
2021/01/16 05:36:54;;;;;;;110.30;44.67;;;-0.80;99.90;;;;;;4959961;28;20023;-84
2021/01/16 05:39:20;;;;;;;87.28;43.03;;;-0.80;99.90;;;;;;4959813;28;20027;-84
2021/01/16 05:41:47;;;;;;;79.22;39.42;;;-0.90;99.90;;;;;;4977218;28;20101;-84
2021/01/16 05:44:14;;;;;;;82.55;41.78;;;-0.90;99.90;;;;;;4977095;28;20034;-84
2021/01/16 05:46:44;;;;;;;102.55;46.78;;;-1.00;99.90;;;;;;4977129;28;20462;-84
2021/01/16 05:49:15;;;;;;;105.40;51.03;;;-1.00;99.90;;;;;;4977199;28;20467;-84
2021/01/16 05:51:43;;;;;;;127.75;55.70;;;-1.00;99.90;;;;;;4977032;28;20470;-84
2021/01/16 05:54:11;;;;;;;123.05;59.40;;;-1.10;99.90;;;;;;4976825;28;20073;-84
2021/01/16 05:56:39;;;;;;;131.27;64.03;;;-1.00;99.90;;;;;;4976920;28;20061;-84
2021/01/16 05:59:11;;;;;;;140.95;67.03;;;-1.10;99.90;;;;;;4977366;28;20027;-83
2021/01/16 06:01:38;;;;;;;141.68;68.55;;;-1.10;99.90;;;;;;4976830;28;20030;-83
2021/01/16 06:04:04;;;;;;;130.55;64.65;;;-1.00;99.90;;;;;;4976609;28;20050;-83
2021/01/16 06:06:36;;;;;;;177.27;63.80;;;-1.00;99.90;;;;;;4976767;28;20077;-84
2021/01/16 06:09:03;;;;;;;110.47;52.30;;;-1.10;99.90;;;;;;4976631;28;20057;-84
2021/01/16 06:11:38;;;;;;;100.22;51.17;;;-1.00;99.90;;;;;;4959293;28;20023;-85
2021/01/16 06:14:07;;;;;;;104.03;52.05;;;-1.00;99.90;;;;;;4975298;28;20019;-84
2021/01/16 06:16:46;;;;;;;118.47;58.13;;;-1.00;99.90;;;;;;4976499;28;20019;-84
2021/01/16 06:19:18;;;;;;;127.90;59.00;;;-1.10;99.90;;;;;;4976536;28;20023;-84
2021/01/16 06:21:44;;;;;;;116.07;56.40;;;-1.10;99.90;;;;;;4976492;28;20098;-84
2021/01/16 06:24:20;;;;;;;101.68;49.80;;;-1.10;99.90;;;;;;4976513;28;20050;-84
2021/01/16 06:26:58;;;;;;;107.30;52.38;;;-1.10;99.90;;;;;;4959017;28;20026;-84
2021/01/16 06:29:29;;;;;;;116.07;56.47;;;-1.10;99.90;;;;;;4958999;28;20027;-85
2021/01/16 06:32:11;;;;;;;98.05;49.08;;;-1.10;99.90;;;;;;4958911;28;20027;-85
2021/01/16 06:34:42;;;;;;;118.63;55.35;;;-1.10;99.90;;;;;;4975761;28;20113;-84
2021/01/16 06:37:11;;;;;;;;;;;-1.10;99.90;;;;;;4957512;28;20546;-85
2021/01/16 06:39:46;;;;;;;75.88;39.03;;;-1.10;99.90;;;;;;4976081;28;19906;-85
2021/01/16 06:42:23;;;;;;;60.40;34.67;;;-1.10;99.90;;;;;;4976075;28;20058;-85
2021/01/16 06:45:10;;;;;;;61.45;31.33;;;-1.10;99.90;;;;;;4958704;28;20023;-84
2021/01/16 06:47:37;;;;;;;69.57;37.42;;;-1.10;99.90;;;;;;4974756;28;20026;-84
2021/01/16 06:50:07;;;;;;;97.78;47.38;;;-1.10;99.90;;;;;;4975915;28;20050;-84
2021/01/16 06:52:38;;;;;;;151.95;73.13;;;-1.10;99.90;;;;;;4976088;28;20030;-84
2021/01/16 06:55:06;;;;;;;132.35;65.57;;;-1.10;99.90;;;;;;4975802;28;20031;-85
2021/01/16 06:57:33;;;;;;;140.63;68.18;;;-1.10;99.90;;;;;;4958377;28;20031;-84
2021/01/16 07:00:01;;;;;;;82.10;43.08;;;-1.10;99.90;;;;;;4975703;28;20026;-85
2021/01/16 07:02:32;;;;;;;94.57;48.30;;;-1.20;99.90;;;;;;4975655;28;20023;-84
2021/01/16 07:05:06;;;;;;;120.55;55.65;;;-1.10;99.90;;;;;;4975583;28;20470;-85
2021/01/16 07:07:39;;;;;;;450.60;131.02;;;-1.10;99.90;;;;;;4975822;28;20063;-83
2021/01/16 07:10:08;;;;;;;162.23;74.50;;;-1.10;99.90;;;;;;4975571;28;20030;-83
2021/01/16 07:12:35;;;;;;;140.80;72.20;;;-1.10;99.90;;;;;;4975492;28;20085;-84
2021/01/16 07:15:03;;;;;;;117.47;58.17;;;-1.10;99.90;;;;;;4975259;28;20023;-84
2021/01/16 07:17:31;;;;;;;134.45;58.20;;;-1.10;99.90;;;;;;4975416;28;20025;-84
2021/01/16 07:19:58;;;;;;;122.75;56.80;;;-1.10;99.90;;;;;;4975357;28;20022;-84
2021/01/16 07:22:31;;;;;;;135.75;66.35;;;-1.00;99.90;;;;;;4975289;28;20031;-85
2021/01/16 07:25:00;;;;;;;133.57;64.63;;;-1.00;99.90;;;;;;4975318;28;20026;-84
2021/01/16 07:27:27;;;;;;;145.13;69.05;;;-1.00;99.90;;;;;;4975311;28;20110;-84
2021/01/16 07:29:57;;;;;;;186.20;86.15;;;-1.00;99.90;;;;;;4975228;28;20046;-84
2021/01/16 07:32:35;;;;;;;173.65;80.55;;;-1.00;99.90;;;;;;4973917;28;20048;-84
2021/01/16 07:35:02;;;;;;;170.13;80.15;;;-1.00;99.90;;;;;;4975055;28;20057;-84
2021/01/16 07:37:30;;;;;;;198.50;93.18;;;-0.90;99.90;;;;;;4974981;28;20023;-84
2021/01/16 07:39:57;;;;;;;133.93;67.38;;;-0.90;99.90;;;;;;4957797;28;20386;-83
2021/01/16 07:42:25;;;;;;;161.63;69.55;;;-0.80;99.90;;;;;;4973761;28;20033;-83
2021/01/16 07:45:09;;;;;;;157.38;64.10;;;-0.80;99.90;;;;;;4974975;28;20081;-83
2021/01/16 07:47:41;;;;;;;314.48;91.90;;;-0.80;99.90;;;;;;4974636;28;20054;-84
2021/01/16 07:50:20;;;;;;;130.45;61.38;;;-0.70;99.90;;;;;;4974877;28;20027;-84
2021/01/16 07:53:10;;;;;;;77.95;41.28;;;-0.60;99.90;;;;;;4974971;28;20031;-83
2021/01/16 07:55:35;;;;;;;69.28;36.97;;;-0.60;99.90;;;;;;4974725;28;20093;-84
2021/01/16 07:58:34;;;;;;;78.15;41.55;;;-0.60;99.90;;;;;;4974442;28;20378;-84
2021/01/16 08:01:07;;;;;;;126.25;64.40;;;-0.50;99.90;;;;;;4956040;28;20035;-84
2021/01/16 08:04:09;;;;;;;118.13;61.45;;;-0.50;99.90;;;;;;4973135;28;20055;-84
2021/01/16 08:06:43;;;;;;;122.43;62.55;;;-0.40;99.90;;;;;;4974338;28;20101;-86
2021/01/16 08:09:30;;;;;;;308.08;111.85;;;-0.30;99.90;;;;;;4957224;28;20027;-84
2021/01/16 08:12:00;;;;;;;174.20;74.63;;;-0.30;99.90;;;;;;4956330;28;20097;-84
2021/01/16 08:14:32;;;;;;;237.63;99.18;;;-0.20;99.90;;;;;;4974495;28;20019;-83
2021/01/16 08:17:02;;;;;;;205.38;87.68;;;-0.20;99.90;;;;;;4957253;28;20379;-84
2021/01/16 08:20:00;;;;;;;130.35;61.33;;;-0.20;99.90;;;;;;4974830;28;20158;-84
2021/01/16 08:22:56;;;;;;;139.48;60.75;;;-0.10;99.90;;;;;;4957247;28;20027;-83
2021/01/16 08:25:25;;;;;;;119.78;57.13;;;0.00;99.90;;;;;;4957097;28;20470;-84
2021/01/16 08:27:56;;;;;;;79.43;38.63;;;0.10;99.90;;;;;;4974197;28;20042;-85
2021/01/16 08:30:33;;;;;;;114.35;55.15;;;0.20;99.90;;;;;;4957126;28;20027;-84
2021/01/16 08:33:05;;;;;;;93.47;45.25;;;0.30;99.90;;;;;;4974370;28;20023;-83
2021/01/16 08:35:33;;;;;;;59.78;33.47;;;0.30;99.90;;;;;;4974226;28;20031;-84
2021/01/16 08:38:17;;;;;;;73.43;38.22;;;0.30;99.90;;;;;;4960850;28;20026;-83
2021/01/16 08:40:50;;;;;;;74.80;40.17;;;0.40;99.90;;;;;;4992179;28;20470;-84
2021/01/16 08:43:33;;;;;;;53.13;29.77;;;0.30;99.90;;;;;;4984165;28;20424;-83
2021/01/16 08:46:23;;;;;;;66.20;33.33;;;0.20;99.90;;;;;;4990959;28;20026;-83
2021/01/16 08:49:09;;;;;;;;;;;0.20;99.90;;;;;;4976662;28;20022;-83
2021/01/16 08:51:36;;;;;;;58.50;27.00;;;0.20;99.90;;;;;;4993653;28;19990;-85
2021/01/16 08:54:21;;;;;;;62.53;31.92;;;0.10;99.90;;;;;;4993578;28;20030;-82
2021/01/16 08:56:49;;;;;;;67.40;33.83;;;0.20;99.90;;;;;;4976167;28;20031;-85
2021/01/16 08:59:31;;;;;;;55.35;27.23;;;0.20;99.90;;;;;;4994490;28;20030;-86
2021/01/16 09:02:10;;;;;;;47.33;25.35;;;0.20;99.90;;;;;;4979869;28;20033;-85
2021/01/16 09:04:37;;;;;;;40.78;22.63;;;0.20;99.90;;;;;;4997331;28;20393;-85
2021/01/16 09:07:11;;;;;;;45.83;25.38;;;0.30;99.90;;;;;;4997130;28;20030;-84
2021/01/16 09:09:37;;;;;;;146.48;71.82;;;0.30;99.90;;;;;;4997051;28;20022;-85
2021/01/16 09:12:11;;;;;;;81.13;38.25;;;0.30;99.90;;;;;;4997049;28;20735;-85
2021/01/16 09:14:40;;;;;;;51.38;31.85;;;0.30;99.90;;;;;;4979638;28;20030;-86
2021/01/16 09:17:16;;;;;;;70.07;34.30;;;0.30;99.90;;;;;;4979528;28;20425;-82
2021/01/16 09:19:42;;;;;;;45.30;25.77;;;0.30;99.90;;;;;;4979672;28;20022;-85
2021/01/16 09:22:22;;;;;;;42.15;25.50;;;0.30;99.90;;;;;;4996893;28;20076;-86
2021/01/16 09:24:48;;;;;;;46.85;27.23;;;0.30;99.90;;;;;;4979402;28;20081;-84
2021/01/16 09:27:28;;;;;;;49.90;28.08;;;0.40;99.90;;;;;;4996995;28;20034;-84
2021/01/16 09:29:54;;;;;;;40.58;23.75;;;0.40;99.90;;;;;;4979556;28;20022;-85
2021/01/16 09:32:29;;;;;;;39.70;22.83;;;0.40;99.90;;;;;;4979324;28;20097;-82
2021/01/16 09:34:55;;;;;;;44.83;25.27;;;0.40;99.90;;;;;;4996650;28;20065;-83
2021/01/16 09:37:26;;;;;;;55.75;29.98;;;0.40;99.90;;;;;;4996728;28;20046;-85
2021/01/16 09:40:06;;;;;;;49.33;26.33;;;0.40;99.90;;;;;;4996595;28;20048;-83
2021/01/16 09:42:42;;;;;;;58.20;28.55;;;0.40;99.90;;;;;;4996470;28;20105;-85
2021/01/16 09:45:09;;;;;;;50.80;29.30;;;0.40;99.90;;;;;;4996579;28;20030;-87
2021/01/16 09:47:34;;;;;;;47.67;26.13;;;0.40;99.90;;;;;;4978089;28;20026;-85
2021/01/16 09:50:00;;;;;;;48.60;26.75;;;0.40;99.90;;;;;;4978902;28;20392;-85
2021/01/16 09:52:26;;;;;;;42.45;22.75;;;0.40;99.90;;;;;;4996163;28;20489;-86
2021/01/16 09:54:54;;;;;;;52.72;28.92;;;0.40;99.90;;;;;;4978850;28;20113;-86
2021/01/16 09:57:38;;;;;;;59.30;31.60;;;0.50;99.90;;;;;;4963050;28;20073;-84
2021/01/16 10:00:25;;;;;;;53.13;26.95;;;0.50;99.90;;;;;;4978754;28;20022;-84
2021/01/16 10:03:08;;;;;;;61.55;30.40;;;0.50;99.90;;;;;;4975384;28;20080;-84
2021/01/16 10:05:35;;;;;;;50.00;27.00;;;0.60;99.90;;;;;;4976777;28;20114;-84
2021/01/16 10:08:03;;;;;;;52.28;26.73;;;0.70;99.90;;;;;;4976786;28;20482;-84
2021/01/16 10:10:41;;;;;;;51.08;29.05;;;0.90;99.90;;;;;;4976461;28;20027;-83
2021/01/16 10:13:10;;;;;;;49.65;28.25;;;1.20;99.90;;;;;;4975308;28;20058;-84
2021/01/16 10:15:49;;;;;;;43.58;23.05;;;1.50;99.90;;;;;;4976150;28;20030;-84
2021/01/16 10:18:20;;;;;;;43.35;24.00;;;1.40;99.90;;;;;;4976251;28;20451;-83
2021/01/16 10:21:05;;;;;;;47.47;25.08;;;1.50;99.90;;;;;;4976149;28;20022;-84
2021/01/16 10:23:42;;;;;;;42.80;23.83;;;1.70;99.90;;;;;;4975159;28;20031;-85
2021/01/16 10:26:13;;;;;;;47.20;26.40;;;2.00;99.90;;;;;;4971244;28;20082;-83
2021/01/16 10:28:48;;;;;;;33.70;21.23;;;2.20;99.90;;;;;;4955617;29;20031;-87
2021/01/16 10:31:22;;;;;;;45.40;27.25;;;2.30;99.90;;;;;;4955682;29;20382;-85
2021/01/16 10:33:48;;;;;;;45.15;27.23;;;2.30;99.90;;;;;;4939364;29;20050;-85
2021/01/16 10:36:18;;;;;;;54.47;30.75;;;2.10;99.90;;;;;;4956515;28;20428;-86
2021/01/16 10:38:47;;;;;;;38.28;23.10;;;2.00;99.90;;;;;;4955704;28;20438;-85
2021/01/16 10:41:19;;;;;;;40.55;22.17;;;1.90;99.90;;;;;;4964988;28;20047;-86
2021/01/16 10:43:46;;;;;;;37.78;22.50;;;1.90;99.90;;;;;;4966371;28;20022;-86
2021/01/16 10:46:31;;;;;;;30.88;17.55;;;1.90;99.90;;;;;;4965454;28;20098;-86
2021/01/16 10:49:12;;;;;;;43.38;24.70;;;2.00;99.90;;;;;;4963171;28;20576;-84
2021/01/16 10:51:52;;;;;;;56.13;29.50;;;2.20;99.90;;;;;;4969127;28;20027;-85
2021/01/16 10:54:19;;;;;;;38.22;23.40;;;2.40;99.90;;;;;;4987018;28;20034;-86
2021/01/16 10:56:56;;;;;;;31.40;21.27;;;2.40;99.90;;;;;;4975522;28;20378;-86
2021/01/16 10:59:26;;;;;;;36.55;21.65;;;2.30;99.90;;;;;;4975518;28;20030;-86
2021/01/16 11:01:52;;;;;;;37.22;22.02;;;2.10;99.90;;;;;;4975459;28;20031;-86
2021/01/16 11:04:26;;;;;;;57.35;30.10;;;2.00;99.90;;;;;;4990297;28;20133;-86
2021/01/16 11:06:58;;;;;;;56.53;28.33;;;2.10;99.90;;;;;;4966454;28;20055;-84
2021/01/16 11:09:43;;;;;;;48.20;25.85;;;2.40;99.90;;;;;;4965413;28;20058;-84
2021/01/16 11:12:10;;;;;;;58.13;29.67;;;2.60;99.90;;;;;;4965812;28;20363;-84
2021/01/16 11:14:41;;;;;;;49.10;28.38;;;2.70;99.90;;;;;;4964218;28;20396;-83
2021/01/16 11:17:12;;;;;;;43.30;24.33;;;3.00;99.90;;;;;;4964402;28;20475;-85
2021/01/16 11:19:40;;;;;;;44.95;26.60;;;3.20;99.90;;;;;;4970036;28;20023;-84
2021/01/16 11:22:10;;;;;;;64.43;32.17;;;3.20;98.10;;;;;;4973578;28;20367;-82
2021/01/16 11:24:36;;;;;;;47.42;28.20;;;3.40;98.10;;;;;;4974906;28;20029;-82
2021/01/16 11:27:09;;;;;;;37.17;23.38;;;3.30;95.80;;;;;;4975118;28;20028;-82
2021/01/16 11:29:44;;;;;;;59.35;30.35;;;3.30;96.30;;;;;;4975354;28;20032;-82
2021/01/16 11:32:21;;;;;;;44.60;25.98;;;3.30;95.20;;;;;;4974610;28;20066;-82
2021/01/16 11:35:09;;;;;;;38.08;23.92;;;3.00;93.70;;;;;;4972449;28;20125;-82
2021/01/16 11:37:45;;;;;;;59.05;34.10;;;2.80;96.40;;;;;;4972704;28;20023;-82
2021/01/16 11:40:31;;;;;;;37.83;24.98;;;2.70;96.20;;;;;;4972533;28;20474;-82
2021/01/16 11:43:05;;;;;;;60.38;33.70;;;2.70;97.20;;;;;;4971550;28;20027;-83
2021/01/16 11:45:31;;;;;;;41.05;23.65;;;2.80;97.70;;;;;;4987426;28;20081;-82
2021/01/16 11:48:01;;;;;;;54.80;29.95;;;3.00;96.90;;;;;;4972942;28;20398;-83
2021/01/16 11:50:29;;;;;;;53.55;30.17;;;3.20;97.50;;;;;;4972586;28;20118;-83
2021/01/16 11:52:55;;;;;;;35.20;21.40;;;3.30;96.30;;;;;;4972595;28;20057;-83
2021/01/16 11:55:21;;;;;;;34.55;20.48;;;3.40;95.70;;;;;;4972474;28;20474;-83
2021/01/16 11:57:48;;;;;;;48.38;27.23;;;3.50;96.60;;;;;;4971043;28;20035;-82
2021/01/16 12:00:19;;;;;;;81.55;19.52;;;3.80;97.20;;;;;;4972393;28;20014;-82
2021/01/16 12:02:52;;;;;;;33.40;20.67;;;3.90;95.50;;;;;;4977102;28;20493;-82
2021/01/16 12:05:21;;;;;;;32.13;20.50;;;3.90;94.30;;;;;;4992022;28;20117;-83
2021/01/16 12:07:51;;;;;;;32.72;18.88;;;3.60;94.00;;;;;;4991571;28;20023;-83
2021/01/16 12:10:21;;;;;;;29.38;17.65;;;3.40;92.60;;;;;;4991670;28;20469;-82
2021/01/16 12:12:48;;;;;;;28.15;18.63;;;3.20;93.90;;;;;;4974051;28;20509;-83
2021/01/16 12:15:20;;;;;;;55.55;30.52;;;3.00;94.40;;;;;;4973982;28;20366;-83
2021/01/16 12:17:49;;;;;;;46.08;20.90;;;2.80;95.50;;;;;;4991584;28;20029;-82
2021/01/16 12:20:17;;;;;;;65.72;31.15;;;2.70;96.00;;;;;;4991612;28;20018;-81
2021/01/16 12:22:45;;;;;;;50.05;28.17;;;2.60;97.20;;;;;;4991485;28;20088;-81
2021/01/16 12:25:12;;;;;;;37.58;22.08;;;2.50;97.40;;;;;;4991747;28;20092;-81
2021/01/16 12:27:52;;;;;;;39.42;22.65;;;2.30;96.60;;;;;;4974245;28;20062;-81
2021/01/16 12:30:20;;;;;;;69.85;28.27;;;2.30;98.50;;;;;;4991284;28;20446;-82
2021/01/16 12:32:47;;;;;;;53.25;28.73;;;2.20;99.90;;;;;;4991496;28;20038;-82
2021/01/16 12:35:14;;;;;;;54.28;31.20;;;2.20;99.90;;;;;;4994913;28;20072;-81
2021/01/16 12:37:41;;;;;;;50.80;29.35;;;2.30;99.90;;;;;;4995586;28;20038;-81
2021/01/16 12:40:16;;;;;;;73.20;40.10;;;2.70;99.90;;;;;;4995439;28;20023;-81
2021/01/16 12:42:42;;;;;;;64.55;37.35;;;3.00;99.90;;;;;;4995204;28;20029;-81
2021/01/16 12:45:14;;;;;;;67.05;37.25;;;3.10;99.90;;;;;;4977876;28;20030;-81
2021/01/16 12:47:42;;;;;;;46.83;28.38;;;3.10;99.90;;;;;;4995258;28;20026;-81
2021/01/16 12:50:09;;;;;;;63.05;36.08;;;3.00;99.90;;;;;;4977629;28;20540;-81
2021/01/16 12:52:35;;;;;;;47.22;28.23;;;3.00;99.90;;;;;;4977651;28;20035;-81